sensor_id;sensor_type;location;lat;lon;timestamp;pressure;altitude;pressure_sealevel;temperature;humidity
18145;BME280;14857;41.200;-8.326;2022-10-26T00:00:06;99892.22;;;19.28;100.00
18145;BME280;14857;41.200;-8.326;2022-10-26T00:02:38;99890.56;;;19.27;100.00
18145;BME280;14857;41.200;-8.326;2022-10-26T00:05:08;99888.53;;;19.29;100.00
18145;BME280;14857;41.200;-8.326;2022-10-26T00:07:53;99842.88;;;18.95;100.00
18145;BME280;14857;41.200;-8.326;2022-10-26T00:10:23;99891.88;;;19.31;100.00
18145;BME280;14857;41.200;-8.326;2022-10-26T00:12:56;99898.34;;;19.28;100.00
18145;BME280;14857;41.200;-8.326;2022-10-26T00:15:25;99890.41;;;19.28;100.00
18145;BME280;14857;41.200;-8.326;2022-10-26T00:17:53;99899.66;;;19.32;100.00
18145;BME280;14857;41.200;-8.326;2022-10-26T00:20:22;99897.19;;;19.31;100.00
18145;BME280;14857;41.200;-8.326;2022-10-26T00:22:50;99906.63;;;19.33;100.00
18145;BME280;14857;41.200;-8.326;2022-10-26T00:25:19;99905.97;;;19.31;100.00
18145;BME280;14857;41.200;-8.326;2022-10-26T00:27:49;99900.66;;;19.31;100.00
18145;BME280;14857;41.200;-8.326;2022-10-26T00:30:17;99907.09;;;19.29;100.00
18145;BME280;14857;41.200;-8.326;2022-10-26T00:32:46;99893.38;;;19.25;100.00
18145;BME280;14857;41.200;-8.326;2022-10-26T00:35:15;99901.66;;;19.30;100.00
18145;BME280;14857;41.200;-8.326;2022-10-26T00:38:03;99905.28;;;19.29;100.00
18145;BME280;14857;41.200;-8.326;2022-10-26T00:40:32;99905.63;;;19.26;100.00
18145;BME280;14857;41.200;-8.326;2022-10-26T00:43:02;99909.94;;;19.27;100.00
18145;BME280;14857;41.200;-8.326;2022-10-26T00:45:30;99902.31;;;19.24;100.00
18145;BME280;14857;41.200;-8.326;2022-10-26T00:48:02;99905.28;;;19.29;100.00
18145;BME280;14857;41.200;-8.326;2022-10-26T00:50:36;99915.25;;;19.27;100.00
18145;BME280;14857;41.200;-8.326;2022-10-26T00:53:06;99902.31;;;19.24;100.00
18145;BME280;14857;41.200;-8.326;2022-10-26T00:55:37;99910.75;;;19.20;100.00
18145;BME280;14857;41.200;-8.326;2022-10-26T00:58:09;99901.34;;;19.17;100.00
18145;BME280;14857;41.200;-8.326;2022-10-26T01:00:38;99907.63;;;19.24;100.00
18145;BME280;14857;41.200;-8.326;2022-10-26T01:03:08;99898.03;;;19.15;100.00
18145;BME280;14857;41.200;-8.326;2022-10-26T01:05:40;99909.94;;;19.19;100.00
18145;BME280;14857;41.200;-8.326;2022-10-26T01:08:09;99907.28;;;19.19;100.00
18145;BME280;14857;41.200;-8.326;2022-10-26T01:10:39;99911.59;;;19.20;100.00
18145;BME280;14857;41.200;-8.326;2022-10-26T01:13:13;99908.31;;;19.18;100.00
18145;BME280;14857;41.200;-8.326;2022-10-26T01:15:48;99911.59;;;19.20;100.00
18145;BME280;14857;41.200;-8.326;2022-10-26T01:18:26;99908.94;;;19.20;100.00
18145;BME280;14857;41.200;-8.326;2022-10-26T01:21:37;99906.28;;;19.20;100.00
18145;BME280;14857;41.200;-8.326;2022-10-26T01:24:38;99901.34;;;19.17;100.00
18145;BME280;14857;41.200;-8.326;2022-10-26T01:27:29;99894.88;;;19.12;100.00
18145;BME280;14857;41.200;-8.326;2022-10-26T01:30:26;99895.53;;;19.14;100.00
18145;BME280;14857;41.200;-8.326;2022-10-26T01:33:30;99902.00;;;19.11;100.00
18145;BME280;14857;41.200;-8.326;2022-10-26T01:36:05;99909.63;;;19.14;100.00
18145;BME280;14857;41.200;-8.326;2022-10-26T01:38:42;99896.38;;;19.06;100.00
18145;BME280;14857;41.200;-8.326;2022-10-26T01:41:18;99904.00;;;19.09;100.00
18145;BME280;14857;41.200;-8.326;2022-10-26T01:43:53;99907.81;;;19.15;100.00
18145;BME280;14857;41.200;-8.326;2022-10-26T01:46:25;99897.53;;;19.12;100.00
18145;BME280;14857;41.200;-8.326;2022-10-26T01:49:00;99895.38;;;19.07;100.00
18145;BME280;14857;41.200;-8.326;2022-10-26T01:51:33;99884.59;;;19.01;100.00
18145;BME280;14857;41.200;-8.326;2022-10-26T01:54:02;99899.19;;;19.05;100.00
18145;BME280;14857;41.200;-8.326;2022-10-26T01:56:34;99893.72;;;19.06;100.00
18145;BME280;14857;41.200;-8.326;2022-10-26T01:59:18;99890.59;;;19.03;100.00
18145;BME280;14857;41.200;-8.326;2022-10-26T02:05:09;99896.69;;;19.03;100.00
18145;BME280;14857;41.200;-8.326;2022-10-26T02:07:52;99893.22;;;18.95;100.00
18145;BME280;14857;41.200;-8.326;2022-10-26T02:10:30;99894.38;;;18.92;100.00
18145;BME280;14857;41.200;-8.326;2022-10-26T02:13:12;99898.38;;;18.96;100.00
18145;BME280;14857;41.200;-8.326;2022-10-26T02:15:48;99892.75;;;18.99;100.00
18145;BME280;14857;41.200;-8.326;2022-10-26T02:18:29;99892.06;;;19.05;100.00
18145;BME280;14857;41.200;-8.326;2022-10-26T02:21:02;99895.38;;;19.07;100.00
18145;BME280;14857;41.200;-8.326;2022-10-26T02:23:34;99903.31;;;19.07;100.00
18145;BME280;14857;41.200;-8.326;2022-10-26T02:26:07;99879.47;;;18.91;100.00
18145;BME280;14857;41.200;-8.326;2022-10-26T02:28:41;99899.84;;;19.07;100.00
18145;BME280;14857;41.200;-8.326;2022-10-26T02:31:12;99898.69;;;19.01;100.00
18145;BME280;14857;41.200;-8.326;2022-10-26T02:33:46;99900.34;;;19.02;100.00
18145;BME280;14857;41.200;-8.326;2022-10-26T02:36:26;99904.63;;;19.03;100.00
18145;BME280;14857;41.200;-8.326;2022-10-26T02:38:57;99886.41;;;19.00;100.00
18145;BME280;14857;41.200;-8.326;2022-10-26T02:41:27;99902.00;;;19.03;100.00
18145;BME280;14857;41.200;-8.326;2022-10-26T02:44:04;99901.69;;;18.98;100.00
18145;BME280;14857;41.200;-8.326;2022-10-26T02:46:35;99891.75;;;18.92;100.00
18145;BME280;14857;41.200;-8.326;2022-10-26T02:49:06;99901.34;;;19.01;100.00
18145;BME280;14857;41.200;-8.326;2022-10-26T02:51:39;99900.34;;;19.02;100.00
18145;BME280;14857;41.200;-8.326;2022-10-26T02:54:14;99904.81;;;19.02;100.00
18145;BME280;14857;41.200;-8.326;2022-10-26T02:56:47;99904.34;;;19.06;100.00
18145;BME280;14857;41.200;-8.326;2022-10-26T02:59:20;99877.66;;;18.92;100.00
18145;BME280;14857;41.200;-8.326;2022-10-26T03:01:50;99891.72;;;19.00;100.00
18145;BME280;14857;41.200;-8.326;2022-10-26T03:04:27;99888.28;;;19.00;100.00
18145;BME280;14857;41.200;-8.326;2022-10-26T03:06:58;99889.06;;;19.00;100.00
18145;BME280;14857;41.200;-8.326;2022-10-26T03:09:27;99890.75;;;19.01;100.00
18145;BME280;14857;41.200;-8.326;2022-10-26T03:11:55;99891.38;;;19.03;100.00
18145;BME280;14857;41.200;-8.326;2022-10-26T03:14:24;99889.56;;;19.04;100.00
18145;BME280;14857;41.200;-8.326;2022-10-26T03:16:52;99893.72;;;19.06;100.00
18145;BME280;14857;41.200;-8.326;2022-10-26T03:19:22;99891.41;;;19.11;100.00
18145;BME280;14857;41.200;-8.326;2022-10-26T03:21:51;99887.25;;;19.01;100.00
18145;BME280;14857;41.200;-8.326;2022-10-26T03:24:20;99892.38;;;18.94;100.00
18145;BME280;14857;41.200;-8.326;2022-10-26T03:26:48;99890.25;;;18.81;100.00
18145;BME280;14857;41.200;-8.326;2022-10-26T03:29:17;99882.94;;;18.75;100.00
18145;BME280;14857;41.200;-8.326;2022-10-26T03:31:45;99884.44;;;18.70;100.00
18145;BME280;14857;41.200;-8.326;2022-10-26T03:34:14;99885.75;;;18.66;100.00
18145;BME280;14857;41.200;-8.326;2022-10-26T03:36:47;99893.06;;;18.64;100.00
18145;BME280;14857;41.200;-8.326;2022-10-26T03:39:16;99892.22;;;18.63;100.00
18145;BME280;14857;41.200;-8.326;2022-10-26T03:41:44;99895.38;;;18.67;100.00
18145;BME280;14857;41.200;-8.326;2022-10-26T03:44:14;99876.09;;;18.49;100.00
18145;BME280;14857;41.200;-8.326;2022-10-26T03:46:42;99887.41;;;18.59;100.00
18145;BME280;14857;41.200;-8.326;2022-10-26T03:49:11;99879.78;;;18.56;100.00
18145;BME280;14857;41.200;-8.326;2022-10-26T03:51:39;99882.94;;;18.59;100.00
18145;BME280;14857;41.200;-8.326;2022-10-26T03:54:09;99880.78;;;18.63;100.00
18145;BME280;14857;41.200;-8.326;2022-10-26T03:56:37;99874.16;;;18.59;100.00
18145;BME280;14857;41.200;-8.326;2022-10-26T03:59:06;99876.16;;;18.57;100.00
18145;BME280;14857;41.200;-8.326;2022-10-26T04:01:34;99877.31;;;18.54;100.00
18145;BME280;14857;41.200;-8.326;2022-10-26T04:04:03;99882.78;;;18.61;100.00
18145;BME280;14857;41.200;-8.326;2022-10-26T04:06:31;99882.78;;;18.61;100.00
18145;BME280;14857;41.200;-8.326;2022-10-26T04:09:00;99876.84;;;18.67;100.00
18145;BME280;14857;41.200;-8.326;2022-10-26T04:11:31;99876.97;;;18.65;100.00
18145;BME280;14857;41.200;-8.326;2022-10-26T04:14:00;99877.50;;;18.61;100.00
18145;BME280;14857;41.200;-8.326;2022-10-26T04:16:28;99873.81;;;18.62;100.00
18145;BME280;14857;41.200;-8.326;2022-10-26T04:18:59;99863.56;;;18.59;100.00
18145;BME280;14857;41.200;-8.326;2022-10-26T04:21:28;99866.22;;;18.59;100.00
18145;BME280;14857;41.200;-8.326;2022-10-26T04:23:58;99877.16;;;18.64;100.00
18145;BME280;14857;41.200;-8.326;2022-10-26T04:26:27;99872.84;;;18.63;100.00
18145;BME280;14857;41.200;-8.326;2022-10-26T04:28:57;99873.81;;;18.62;100.00
18145;BME280;14857;41.200;-8.326;2022-10-26T04:31:25;99881.63;;;18.63;100.00
18145;BME280;14857;41.200;-8.326;2022-10-26T04:33:54;99878.78;;;18.65;100.00
18145;BME280;14857;41.200;-8.326;2022-10-26T04:36:22;99870.03;;;18.56;100.00
18145;BME280;14857;41.200;-8.326;2022-10-26T04:38:50;99871.84;;;18.56;100.00
18145;BME280;14857;41.200;-8.326;2022-10-26T04:41:19;99878.78;;;18.65;100.00
18145;BME280;14857;41.200;-8.326;2022-10-26T04:43:48;99881.13;;;18.68;100.00
18145;BME280;14857;41.200;-8.326;2022-10-26T04:46:17;99878.13;;;18.71;100.00
18145;BME280;14857;41.200;-8.326;2022-10-26T04:48:46;99880.63;;;18.72;100.00
18145;BME280;14857;41.200;-8.326;2022-10-26T04:51:15;99878.50;;;18.76;100.00
18145;BME280;14857;41.200;-8.326;2022-10-26T04:53:44;99879.47;;;18.75;100.00
18145;BME280;14857;41.200;-8.326;2022-10-26T04:56:12;99890.91;;;18.75;100.00
18145;BME280;14857;41.200;-8.326;2022-10-26T04:58:40;99875.84;;;18.76;100.00
18145;BME280;14857;41.200;-8.326;2022-10-26T05:04:21;99886.59;;;18.82;100.00
18145;BME280;14857;41.200;-8.326;2022-10-26T05:06:51;99882.47;;;18.80;100.00
18145;BME280;14857;41.200;-8.326;2022-10-26T05:09:20;99881.13;;;18.76;100.00
18145;BME280;14857;41.200;-8.326;2022-10-26T05:11:48;99881.78;;;18.78;100.00
18145;BME280;14857;41.200;-8.326;2022-10-26T05:14:16;99881.78;;;18.78;100.00
18145;BME280;14857;41.200;-8.326;2022-10-26T05:16:45;99879.47;;;18.75;100.00
18145;BME280;14857;41.200;-8.326;2022-10-26T05:19:14;99897.69;;;18.78;100.00
18145;BME280;14857;41.200;-8.326;2022-10-26T05:21:43;99889.06;;;18.84;100.00
18145;BME280;14857;41.200;-8.326;2022-10-26T05:24:13;99886.59;;;18.82;100.00
18145;BME280;14857;41.200;-8.326;2022-10-26T05:26:41;99887.09;;;18.78;100.00
18145;BME280;14857;41.200;-8.326;2022-10-26T05:29:10;99883.13;;;18.74;100.00
18145;BME280;14857;41.200;-8.326;2022-10-26T05:31:38;99885.28;;;18.78;100.00
18145;BME280;14857;41.200;-8.326;2022-10-26T05:34:07;99896.06;;;18.77;100.00
18145;BME280;14857;41.200;-8.326;2022-10-26T05:36:35;99896.38;;;18.82;100.00
18145;BME280;14857;41.200;-8.326;2022-10-26T05:39:05;99914.25;;;18.80;100.00
18145;BME280;14857;41.200;-8.326;2022-10-26T05:41:34;99900.84;;;18.81;100.00
18145;BME280;14857;41.200;-8.326;2022-10-26T05:44:03;99897.19;;;18.82;100.00
18145;BME280;14857;41.200;-8.326;2022-10-26T05:46:32;99898.03;;;18.83;100.00
18145;BME280;14857;41.200;-8.326;2022-10-26T05:49:00;99896.03;;;18.85;100.00
18145;BME280;14857;41.200;-8.326;2022-10-26T05:51:28;99899.53;;;18.85;100.00
18145;BME280;14857;41.200;-8.326;2022-10-26T05:53:59;99910.28;;;18.84;100.00
18145;BME280;14857;41.200;-8.326;2022-10-26T05:56:34;99913.94;;;18.83;100.00
18145;BME280;14857;41.200;-8.326;2022-10-26T05:59:04;99913.41;;;18.87;100.00
18145;BME280;14857;41.200;-8.326;2022-10-26T06:01:46;99910.28;;;18.84;100.00
18145;BME280;14857;41.200;-8.326;2022-10-26T06:04:27;99912.25;;;18.82;100.00
18145;BME280;14857;41.200;-8.326;2022-10-26T06:06:57;99910.44;;;18.82;100.00
18145;BME280;14857;41.200;-8.326;2022-10-26T06:09:26;99901.81;;;18.80;100.00
18145;BME280;14857;41.200;-8.326;2022-10-26T06:11:57;99910.28;;;18.84;100.00
18145;BME280;14857;41.200;-8.326;2022-10-26T06:14:28;99908.28;;;18.78;100.00
18145;BME280;14857;41.200;-8.326;2022-10-26T06:17:06;99902.84;;;18.79;100.00
18145;BME280;14857;41.200;-8.326;2022-10-26T06:19:49;99910.94;;;18.78;100.00
18145;BME280;14857;41.200;-8.326;2022-10-26T06:22:31;99912.59;;;18.79;100.00
18145;BME280;14857;41.200;-8.326;2022-10-26T06:25:11;99923.34;;;18.69;100.00
18145;BME280;14857;41.200;-8.326;2022-10-26T06:27:49;99918.53;;;18.65;100.00
18145;BME280;14857;41.200;-8.326;2022-10-26T06:30:19;99917.38;;;18.59;100.00
18145;BME280;14857;41.200;-8.326;2022-10-26T06:32:50;99917.84;;;18.55;100.00
18145;BME280;14857;41.200;-8.326;2022-10-26T06:35:35;99912.22;;;18.50;100.00
18145;BME280;14857;41.200;-8.326;2022-10-26T06:38:12;99923.56;;;18.42;100.00
18145;BME280;14857;41.200;-8.326;2022-10-26T06:40:44;99933.50;;;18.40;100.00
18145;BME280;14857;41.200;-8.326;2022-10-26T06:43:19;99939.13;;;18.37;100.00
18145;BME280;14857;41.200;-8.326;2022-10-26T06:45:53;99922.22;;;18.30;100.00
18145;BME280;14857;41.200;-8.326;2022-10-26T06:48:27;99942.25;;;18.32;100.00
18145;BME280;14857;41.200;-8.326;2022-10-26T06:50:57;99946.03;;;18.22;100.00
18145;BME280;14857;41.200;-8.326;2022-10-26T06:53:29;99955.09;;;18.19;100.00
18145;BME280;14857;41.200;-8.326;2022-10-26T06:56:00;99951.13;;;18.15;100.00
18145;BME280;14857;41.200;-8.326;2022-10-26T06:58:33;99952.78;;;18.16;100.00
18145;BME280;14857;41.200;-8.326;2022-10-26T07:01:02;99959.22;;;18.14;100.00
18145;BME280;14857;41.200;-8.326;2022-10-26T07:03:31;99949.28;;;18.16;100.00
18145;BME280;14857;41.200;-8.326;2022-10-26T07:05:59;99950.81;;;18.18;100.00
18145;BME280;14857;41.200;-8.326;2022-10-26T07:08:28;99952.81;;;18.24;100.00
18145;BME280;14857;41.200;-8.326;2022-10-26T07:10:58;99948.19;;;18.26;100.00
18145;BME280;14857;41.200;-8.326;2022-10-26T07:13:27;99950.19;;;18.32;100.00
18145;BME280;14857;41.200;-8.326;2022-10-26T07:15:57;99944.94;;;18.41;100.00
18145;BME280;14857;41.200;-8.326;2022-10-26T07:18:26;99952.88;;;18.41;100.00
18145;BME280;14857;41.200;-8.326;2022-10-26T07:20:54;99950.22;;;18.41;100.00
18145;BME280;14857;41.200;-8.326;2022-10-26T07:23:22;99954.22;;;18.45;100.00
18145;BME280;14857;41.200;-8.326;2022-10-26T07:25:51;99946.28;;;18.45;100.00
18145;BME280;14857;41.200;-8.326;2022-10-26T07:28:19;99960.72;;;18.50;100.00
18145;BME280;14857;41.200;-8.326;2022-10-26T07:30:48;99959.75;;;18.59;100.00
18145;BME280;14857;41.200;-8.326;2022-10-26T07:33:23;99965.56;;;18.63;100.00
18145;BME280;14857;41.200;-8.326;2022-10-26T07:35:51;99968.66;;;18.58;100.00
18145;BME280;14857;41.200;-8.326;2022-10-26T07:38:21;99980.09;;;18.59;100.00
18145;BME280;14857;41.200;-8.326;2022-10-26T07:40:49;99979.78;;;18.62;100.00
18145;BME280;14857;41.200;-8.326;2022-10-26T07:43:20;99975.00;;;18.65;100.00
18145;BME280;14857;41.200;-8.326;2022-10-26T07:45:48;99981.44;;;18.71;100.00
18145;BME280;14857;41.200;-8.326;2022-10-26T07:48:18;99979.81;;;18.70;100.00
18145;BME280;14857;41.200;-8.326;2022-10-26T07:50:48;99979.31;;;18.74;100.00
18145;BME280;14857;41.200;-8.326;2022-10-26T07:53:16;99981.66;;;18.85;100.00
18145;BME280;14857;41.200;-8.326;2022-10-26T07:55:54;99984.81;;;18.97;100.00
18145;BME280;14857;41.200;-8.326;2022-10-26T07:58:23;99986.50;;;19.06;100.00
18145;BME280;14857;41.200;-8.326;2022-10-26T08:00:52;99983.84;;;19.06;100.00
18145;BME280;14857;41.200;-8.326;2022-10-26T08:03:22;99989.31;;;19.21;100.00
18145;BME280;14857;41.200;-8.326;2022-10-26T08:05:52;99986.16;;;19.33;100.00
18145;BME280;14857;41.200;-8.326;2022-10-26T08:08:22;99986.34;;;19.32;100.00
18145;BME280;14857;41.200;-8.326;2022-10-26T08:10:50;99985.50;;;19.39;100.00
18145;BME280;14857;41.200;-8.326;2022-10-26T08:13:19;99979.25;;;19.41;100.00
18145;BME280;14857;41.200;-8.326;2022-10-26T08:15:47;99987.50;;;19.62;100.00
18145;BME280;14857;41.200;-8.326;2022-10-26T08:18:16;99987.50;;;19.70;100.00
18145;BME280;14857;41.200;-8.326;2022-10-26T08:20:45;99984.50;;;19.65;100.00
18145;BME280;14857;41.200;-8.326;2022-10-26T08:23:14;99984.16;;;19.68;100.00
18145;BME280;14857;41.200;-8.326;2022-10-26T08:25:43;99987.00;;;19.66;100.00
18145;BME280;14857;41.200;-8.326;2022-10-26T08:28:12;99977.38;;;19.73;100.00
18145;BME280;14857;41.200;-8.326;2022-10-26T08:30:40;99973.84;;;19.89;100.00
18145;BME280;14857;41.200;-8.326;2022-10-26T08:33:09;99974.47;;;20.07;100.00
18145;BME280;14857;41.200;-8.326;2022-10-26T08:35:38;99979.78;;;20.07;100.00
18145;BME280;14857;41.200;-8.326;2022-10-26T08:38:06;99986.00;;;20.38;100.00
18145;BME280;14857;41.200;-8.326;2022-10-26T08:40:39;99973.97;;;21.12;100.00
18145;BME280;14857;41.200;-8.326;2022-10-26T08:43:12;99984.84;;;22.50;100.00
18145;BME280;14857;41.200;-8.326;2022-10-26T08:45:48;99962.34;;;23.10;100.00
18145;BME280;14857;41.200;-8.326;2022-10-26T08:48:21;99974.94;;;24.27;100.00
18145;BME280;14857;41.200;-8.326;2022-10-26T08:50:52;99969.56;;;24.75;100.00
18145;BME280;14857;41.200;-8.326;2022-10-26T08:53:26;99977.97;;;25.52;100.00
18145;BME280;14857;41.200;-8.326;2022-10-26T08:56:00;99972.72;;;26.16;100.00
18145;BME280;14857;41.200;-8.326;2022-10-26T08:58:36;99976.63;;;26.07;100.00
18145;BME280;14857;41.200;-8.326;2022-10-26T09:01:07;99979.13;;;25.89;100.00
18145;BME280;14857;41.200;-8.326;2022-10-26T09:03:36;99984.31;;;25.90;100.00
18145;BME280;14857;41.200;-8.326;2022-10-26T09:06:15;99990.09;;;25.81;100.00
18145;BME280;14857;41.200;-8.326;2022-10-26T09:08:55;99984.69;;;24.07;100.00
18145;BME280;14857;41.200;-8.326;2022-10-26T09:11:38;99981.88;;;23.60;100.00
18145;BME280;14857;41.200;-8.326;2022-10-26T09:14:13;99976.44;;;23.46;100.00
18145;BME280;14857;41.200;-8.326;2022-10-26T09:16:52;99989.91;;;23.38;100.00
18145;BME280;14857;41.200;-8.326;2022-10-26T09:19:36;99982.78;;;24.01;100.00
18145;BME280;14857;41.200;-8.326;2022-10-26T09:22:18;99986.53;;;24.47;100.00
18145;BME280;14857;41.200;-8.326;2022-10-26T09:24:52;99987.44;;;24.68;100.00
18145;BME280;14857;41.200;-8.326;2022-10-26T09:27:26;99975.81;;;24.41;100.00
18145;BME280;14857;41.200;-8.326;2022-10-26T09:29:57;99991.53;;;23.88;100.00
18145;BME280;14857;41.200;-8.326;2022-10-26T09:32:33;99986.81;;;24.18;100.00
18145;BME280;14857;41.200;-8.326;2022-10-26T09:35:04;99985.34;;;25.63;100.00
18145;BME280;14857;41.200;-8.326;2022-10-26T09:37:41;99990.34;;;26.43;100.00
18145;BME280;14857;41.200;-8.326;2022-10-26T09:40:19;99991.19;;;26.37;100.00
18145;BME280;14857;41.200;-8.326;2022-10-26T09:42:54;99992.13;;;25.13;100.00
18145;BME280;14857;41.200;-8.326;2022-10-26T09:45:27;99990.94;;;25.68;100.00
18145;BME280;14857;41.200;-8.326;2022-10-26T09:48:02;99992.06;;;26.76;100.00
18145;BME280;14857;41.200;-8.326;2022-10-26T09:50:34;99982.75;;;28.33;96.31
18145;BME280;14857;41.200;-8.326;2022-10-26T09:53:03;99997.38;;;28.55;90.96
18145;BME280;14857;41.200;-8.326;2022-10-26T09:55:33;99983.91;;;29.03;89.23
18145;BME280;14857;41.200;-8.326;2022-10-26T09:58:13;100001.13;;;30.48;83.80
18145;BME280;14857;41.200;-8.326;2022-10-26T10:00:44;99996.59;;;30.14;81.17
18145;BME280;14857;41.200;-8.326;2022-10-26T10:03:17;99998.69;;;29.65;81.10
18145;BME280;14857;41.200;-8.326;2022-10-26T10:05:47;100005.41;;;26.95;96.23
18145;BME280;14857;41.200;-8.326;2022-10-26T10:08:20;100010.91;;;25.46;100.00
18145;BME280;14857;41.200;-8.326;2022-10-26T10:10:54;99998.34;;;25.73;100.00
18145;BME280;14857;41.200;-8.326;2022-10-26T10:13:25;99991.00;;;26.39;100.00
18145;BME280;14857;41.200;-8.326;2022-10-26T10:16:02;99984.91;;;27.32;100.00
18145;BME280;14857;41.200;-8.326;2022-10-26T10:18:31;99994.50;;;28.87;92.48
18145;BME280;14857;41.200;-8.326;2022-10-26T10:21:00;99994.09;;;29.54;89.80
18145;BME280;14857;41.200;-8.326;2022-10-26T10:23:31;100002.53;;;28.75;91.20
18145;BME280;14857;41.200;-8.326;2022-10-26T10:26:08;99997.41;;;30.94;85.05
18145;BME280;14857;41.200;-8.326;2022-10-26T10:28:40;100012.31;;;30.40;82.68
18145;BME280;14857;41.200;-8.326;2022-10-26T10:31:19;100004.03;;;28.17;93.88
18145;BME280;14857;41.200;-8.326;2022-10-26T10:33:48;100008.38;;;27.93;96.39
18145;BME280;14857;41.200;-8.326;2022-10-26T10:36:20;100008.72;;;26.97;100.00
18145;BME280;14857;41.200;-8.326;2022-10-26T10:38:51;100006.97;;;25.35;100.00
18145;BME280;14857;41.200;-8.326;2022-10-26T10:41:24;100018.00;;;24.86;100.00
18145;BME280;14857;41.200;-8.326;2022-10-26T10:44:02;100000.59;;;24.63;100.00
18145;BME280;14857;41.200;-8.326;2022-10-26T10:46:32;100002.81;;;24.52;100.00
18145;BME280;14857;41.200;-8.326;2022-10-26T10:49:05;99987.69;;;24.25;100.00
18145;BME280;14857;41.200;-8.326;2022-10-26T10:51:38;100003.22;;;23.81;100.00
18145;BME280;14857;41.200;-8.326;2022-10-26T10:54:19;99986.72;;;23.49;100.00
18145;BME280;14857;41.200;-8.326;2022-10-26T10:56:51;99994.69;;;23.22;100.00
18145;BME280;14857;41.200;-8.326;2022-10-26T10:59:40;99996.47;;;22.93;100.00
18145;BME280;14857;41.200;-8.326;2022-10-26T11:05:35;99978.22;;;22.46;100.00
18145;BME280;14857;41.200;-8.326;2022-10-26T11:08:07;99971.78;;;22.56;100.00
18145;BME280;14857;41.200;-8.326;2022-10-26T11:10:41;99969.41;;;22.96;100.00
18145;BME280;14857;41.200;-8.326;2022-10-26T11:13:16;99968.69;;;23.79;100.00
18145;BME280;14857;41.200;-8.326;2022-10-26T11:15:51;99954.75;;;24.18;100.00
18145;BME280;14857;41.200;-8.326;2022-10-26T11:18:26;99967.28;;;24.65;100.00
18145;BME280;14857;41.200;-8.326;2022-10-26T11:21:01;99962.03;;;25.18;100.00
18145;BME280;14857;41.200;-8.326;2022-10-26T11:23:35;99943.41;;;26.21;100.00
18145;BME280;14857;41.200;-8.326;2022-10-26T11:26:10;99938.19;;;26.39;100.00
18145;BME280;14857;41.200;-8.326;2022-10-26T11:28:45;99937.31;;;25.88;100.00
18145;BME280;14857;41.200;-8.326;2022-10-26T11:31:17;99924.97;;;25.67;100.00
18145;BME280;14857;41.200;-8.326;2022-10-26T11:34:04;99930.94;;;25.63;100.00
18145;BME280;14857;41.200;-8.326;2022-10-26T11:36:36;99936.97;;;25.51;100.00
18145;BME280;14857;41.200;-8.326;2022-10-26T11:39:13;99938.91;;;26.02;100.00
18145;BME280;14857;41.200;-8.326;2022-10-26T11:41:48;99926.34;;;26.53;100.00
18145;BME280;14857;41.200;-8.326;2022-10-26T11:44:25;99918.91;;;26.55;100.00
18145;BME280;14857;41.200;-8.326;2022-10-26T11:47:01;99910.19;;;26.16;100.00
18145;BME280;14857;41.200;-8.326;2022-10-26T11:49:38;99885.16;;;26.41;100.00
18145;BME280;14857;41.200;-8.326;2022-10-26T11:52:12;99893.81;;;26.75;100.00
18145;BME280;14857;41.200;-8.326;2022-10-26T11:54:47;99879.28;;;26.57;100.00
18145;BME280;14857;41.200;-8.326;2022-10-26T11:57:18;99883.50;;;26.40;100.00
18145;BME280;14857;41.200;-8.326;2022-10-26T11:59:51;99882.38;;;26.23;100.00
18145;BME280;14857;41.200;-8.326;2022-10-26T12:02:23;99868.44;;;26.71;100.00
18145;BME280;14857;41.200;-8.326;2022-10-26T12:04:56;99854.88;;;26.97;100.00
18145;BME280;14857;41.200;-8.326;2022-10-26T12:07:29;99856.03;;;28.23;100.00
18145;BME280;14857;41.200;-8.326;2022-10-26T12:10:00;99856.59;;;28.96;100.00
18145;BME280;14857;41.200;-8.326;2022-10-26T12:12:34;99856.34;;;30.31;87.07
18145;BME280;14857;41.200;-8.326;2022-10-26T12:15:16;99850.41;;;32.81;75.66
18145;BME280;14857;41.200;-8.326;2022-10-26T12:18:05;99837.75;;;32.59;74.34
18145;BME280;14857;41.200;-8.326;2022-10-26T12:20:53;99825.75;;;32.82;75.84
18145;BME280;14857;41.200;-8.326;2022-10-26T12:23:29;99813.03;;;30.70;83.33
18145;BME280;14857;41.200;-8.326;2022-10-26T12:26:38;99805.03;;;32.12;75.23
18145;BME280;14857;41.200;-8.326;2022-10-26T12:29:31;99798.78;;;31.25;85.20
18145;BME280;14857;41.200;-8.326;2022-10-26T12:34:59;99785.28;;;31.47;83.03
18145;BME280;14857;41.200;-8.326;2022-10-26T12:37:32;99787.75;;;29.24;89.07
18145;BME280;14857;41.200;-8.326;2022-10-26T12:40:37;99775.47;;;27.26;100.00
18145;BME280;14857;41.200;-8.326;2022-10-26T12:43:36;99775.50;;;26.76;100.00
18145;BME280;14857;41.200;-8.326;2022-10-26T12:52:50;99764.75;;;26.83;100.00
18145;BME280;14857;41.200;-8.326;2022-10-26T13:04:47;99720.09;;;26.63;100.00
18145;BME280;14857;41.200;-8.326;2022-10-26T13:07:21;99713.59;;;26.28;100.00
18145;BME280;14857;41.200;-8.326;2022-10-26T13:09:59;99715.84;;;26.99;100.00
18145;BME280;14857;41.200;-8.326;2022-10-26T13:12:36;99703.19;;;26.88;100.00
18145;BME280;14857;41.200;-8.326;2022-10-26T13:15:20;99709.66;;;26.55;100.00
18145;BME280;14857;41.200;-8.326;2022-10-26T13:17:55;99701.34;;;26.39;100.00
18145;BME280;14857;41.200;-8.326;2022-10-26T13:20:26;99701.44;;;25.94;100.00
18145;BME280;14857;41.200;-8.326;2022-10-26T13:22:56;99705.72;;;25.71;100.00
18145;BME280;14857;41.200;-8.326;2022-10-26T13:25:28;99701.97;;;25.78;100.00
18145;BME280;14857;41.200;-8.326;2022-10-26T13:28:00;99704.00;;;25.76;100.00
18145;BME280;14857;41.200;-8.326;2022-10-26T13:30:43;99694.16;;;25.70;100.00
18145;BME280;14857;41.200;-8.326;2022-10-26T13:33:21;99688.94;;;25.82;100.00
18145;BME280;14857;41.200;-8.326;2022-10-26T13:35:55;99693.69;;;25.35;100.00
18145;BME280;14857;41.200;-8.326;2022-10-26T13:38:30;99700.03;;;25.54;100.00